Accueil
METAR-TAF:

METAR-TAF

Aéroports :

Aéroport de Lugano

Lugano, Suisse

latitude: 46-00N, longitude: 008-58E, altitude: 273 m

Observation

Le bulletin a été fait il y a 39 minutes, à 08:20 UTC
Vent 1 kt de direction variable
Température 14°C
Humidité 88%
Pression 1023 hPa
Visibilité 10 km ou plus
Nuages fragmentés à une hauteur de 6000 ft

METAR: LSZA 140820Z VRB01KT 9999 BKN060 14/12 Q1023 NOSIG

Heure: 10:59 (08:59 UTC)

Prévision

Le bulletin a été fait il y a 34 minutes, à 08:25 UTC
Prévision valable du 14 à 09 UTC au 14 à 18 UTC
Vent 2 kt de direction variable
Visibilité 10 km ou plus
Nuages fragmentés à une hauteur de 6000 ft

TAF: LSZA 140825Z 1409/1418 VRB02KT 9999 BKN060

Observations et prévisions météorologiques de plus de 4000 aéroports (messages METAR et TAF).

Les stations disponibles sont représentées par des disques jaunes et rouges sur la carte.

Passer la souris dessus pour voir le nom de la station.

Cliquer dessus pour voir les observations et prévisions météorologiques.

Pour changer de carte: cliquez sur les boutons verts avec une croix noire pour zoomer, sur le bouton vert avec un tiret pour effectuer un zoom arrière, ou sur les flèches vertes pour les cartes adjacentes.


METAR-TAF: